Time;durP1;ratioP1;P1;durP2;ratioP2;P2;SDS_P1;SDS_P2;PMS_P1;PMS_P2;Temp;Humidity;BMP_temperature;BMP_pressure;BME280_temperature;BME280_humidity;BME280_pressure;Samples;Min_cycle;Max_cycle;Signal;HPM_P1;HPM_P2
2022/08/17 00:00:13;;;;;;;;;;;22.30;66.10;;;;;;5073710;28;19904;-86
2022/08/17 00:02:57;;;;;;;;;;;22.30;66.50;;;;;;5070204;28;19908;-87
2022/08/17 00:05:23;;;;;;;;;;;22.30;66.60;;;;;;5068932;28;19920;-90
2022/08/17 00:07:48;;;;;;;;;;;22.30;66.90;;;;;;5061934;28;19905;-88
2022/08/17 00:10:14;;;;;;;;;;;22.20;67.00;;;;;;5072353;28;20007;-87
2022/08/17 00:12:42;;;;;;;;;;;22.10;67.10;;;;;;5077831;28;20276;-87
2022/08/17 00:15:09;;;;;;;;;;;22.10;67.30;;;;;;5081588;28;19904;-88
2022/08/17 00:17:35;;;;;;;;;;;22.10;67.50;;;;;;5065799;28;20415;-89
2022/08/17 00:20:00;;;;;;;;;;;22.10;68.00;;;;;;5066940;28;19909;-90
2022/08/17 00:22:26;;;;;;;;;;;22.10;67.90;;;;;;5074768;28;20595;-90
2022/08/17 00:24:52;;;;;;;;;;;22.10;68.10;;;;;;5108450;28;19917;-89
2022/08/17 00:27:18;;;;;;;;;;;22.00;68.50;;;;;;5066053;28;19924;-89
2022/08/17 00:29:44;;;;;;;;;;;22.00;69.00;;;;;;5059052;28;20598;-89
2022/08/17 00:32:11;;;;;;;;;;;22.00;69.00;;;;;;5065931;28;19953;-90
2022/08/17 00:34:36;;;;;;;;;;;21.90;69.00;;;;;;5063580;28;19905;-90
2022/08/17 00:37:02;;;;;;;;;;;21.90;69.10;;;;;;5057955;28;19904;-89
2022/08/17 00:39:28;;;;;;;;;;;21.90;69.10;;;;;;5061179;28;19904;-89
2022/08/17 00:41:54;;;;;;;;;;;21.80;69.30;;;;;;5060068;28;19905;-88
2022/08/17 00:44:19;;;;;;;;;;;21.80;69.70;;;;;;5070573;28;19912;-87
2022/08/17 00:46:46;;;;;;;;;;;21.80;69.50;;;;;;5076886;28;19905;-88
2022/08/17 00:49:13;;;;;;;;;;;21.70;69.90;;;;;;5067710;28;19912;-88
2022/08/17 00:51:51;;;;;;;;;;;21.70;70.10;;;;;;5066805;28;19908;-88
2022/08/17 00:54:19;;;;;;;;;;;21.70;70.40;;;;;;5087442;28;19966;-88
2022/08/17 00:56:46;;;;;;;;;;;21.70;70.40;;;;;;5078454;28;19911;-88
2022/08/17 00:59:14;;;;;;;;;;;21.60;70.60;;;;;;5076591;28;19905;-88
2022/08/17 01:01:40;;;;;;;;;;;21.60;70.90;;;;;;5073958;28;19904;-87
2022/08/17 01:04:06;;;;;;;;;;;21.60;70.80;;;;;;5071485;28;19923;-90
2022/08/17 01:06:32;;;;;;;;;;;21.60;70.70;;;;;;5064677;28;19905;-87
2022/08/17 01:09:00;;;;;;;;;;;21.50;70.70;;;;;;5074594;28;19904;-86
2022/08/17 01:11:28;;;;;;;;;;;21.50;70.90;;;;;;5083016;28;19904;-87
2022/08/17 01:13:53;;;;;;;;;;;21.50;70.80;;;;;;5080013;28;20358;-89
2022/08/17 01:16:21;;;;;;;;;;;21.50;71.10;;;;;;5067543;28;19904;-88
2022/08/17 01:18:49;;;;;;;;;;;21.50;71.00;;;;;;5074937;28;19912;-89
2022/08/17 01:21:21;;;;;;;;;;;21.40;71.00;;;;;;5081455;28;20304;-89
2022/08/17 01:23:47;;;;;;;;;;;21.50;71.30;;;;;;5083458;28;20242;-89
2022/08/17 01:26:13;;;;;;;;;;;21.40;71.20;;;;;;5083043;28;20004;-90
2022/08/17 01:28:40;;;;;;;;;;;21.40;71.40;;;;;;5082127;28;19925;-91
2022/08/17 01:31:06;;;;;;;;;;;21.40;71.30;;;;;;5083869;28;20349;-91
2022/08/17 01:33:33;;;;;;;;;;;21.30;71.30;;;;;;5078833;28;20007;-90
2022/08/17 01:35:59;;;;;;;;;;;21.40;71.60;;;;;;5063937;28;19911;-89
2022/08/17 01:38:30;;;;;;;;;;;21.30;71.60;;;;;;5073004;28;20354;-89
2022/08/17 01:41:03;;;;;;;;;;;21.30;71.40;;;;;;5076446;28;20633;-91
2022/08/17 01:43:32;;;;;;;;;;;21.30;72.20;;;;;;5081619;28;19912;-89
2022/08/17 01:45:59;;;;;;;;;;;21.30;71.50;;;;;;5084043;28;19991;-90
2022/08/17 01:48:31;;;;;;;;;;;21.30;71.60;;;;;;5121591;28;19995;-90
2022/08/17 01:50:57;;;;;;;;;;;21.30;71.70;;;;;;5091691;28;19939;-89
2022/08/17 01:53:28;;;;;;;;;;;21.30;71.60;;;;;;5086143;28;19936;-91
2022/08/17 01:56:01;;;;;;;;;;;21.30;72.00;;;;;;5088127;28;19926;-91
2022/08/17 01:58:27;;;;;;;;;;;21.30;72.00;;;;;;5070867;28;19911;-90
2022/08/17 02:00:53;;;;;;;;;;;21.30;71.70;;;;;;5089583;28;19908;-90
2022/08/17 02:03:20;;;;;;;;;;;21.30;71.80;;;;;;5079856;28;20412;-91
2022/08/17 02:05:47;;;;;;;;;;;21.30;71.80;;;;;;5079246;28;20293;-91
2022/08/17 02:08:14;;;;;;;;;;;21.30;71.80;;;;;;5080967;28;19909;-92
2022/08/17 02:10:41;;;;;;;;;;;21.30;71.60;;;;;;5080192;28;19911;-92
2022/08/17 02:13:07;;;;;;;;;;;21.30;71.70;;;;;;5060884;28;19909;-91
2022/08/17 02:15:33;;;;;;;;;;;21.30;72.00;;;;;;5114771;28;19908;-90
2022/08/17 02:18:00;;;;;;;;;;;21.30;72.00;;;;;;5088789;28;20003;-90
2022/08/17 02:20:26;;;;;;;;;;;21.30;71.90;;;;;;5086596;28;19912;-90
2022/08/17 02:22:52;;;;;;;;;;;21.30;71.70;;;;;;5119173;28;20292;-88
2022/08/17 02:25:19;;;;;;;;;;;21.20;72.00;;;;;;5077960;28;19912;-89
2022/08/17 02:27:45;;;;;;;;;;;21.20;71.80;;;;;;5079593;28;20022;-90
2022/08/17 02:30:13;;;;;;;;;;;21.20;71.90;;;;;;5080845;28;19966;-88
2022/08/17 02:32:39;;;;;;;;;;;21.20;71.90;;;;;;5084967;28;19995;-87
2022/08/17 02:35:05;;;;;;;;;;;21.20;72.00;;;;;;5079013;28;19911;-88
2022/08/17 02:37:31;;;;;;;;;;;21.20;72.00;;;;;;5099484;28;19904;-88
2022/08/17 02:39:58;;;;;;;;;;;21.10;72.00;;;;;;5094752;28;19925;-87
2022/08/17 02:42:28;;;;;;;;;;;21.10;72.10;;;;;;5092861;28;19905;-87
2022/08/17 02:44:54;;;;;;;;;;;21.10;72.30;;;;;;5082863;28;20375;-91
2022/08/17 02:47:19;;;;;;;;;;;21.10;72.20;;;;;;5074210;28;19927;-90
2022/08/17 02:49:45;;;;;;;;;;;21.10;72.40;;;;;;5079616;28;19975;-90
2022/08/17 02:52:11;;;;;;;;;;;21.10;72.40;;;;;;5086827;28;19940;-90
2022/08/17 02:54:36;;;;;;;;;;;21.10;72.40;;;;;;5084831;28;19912;-87
2022/08/17 02:57:02;;;;;;;;;;;21.10;72.40;;;;;;5081932;28;19911;-87
2022/08/17 02:59:28;;;;;;;;;;;21.00;72.30;;;;;;5079685;28;19912;-87
2022/08/17 03:01:54;;;;;;;;;;;21.10;72.50;;;;;;5069764;28;19905;-87
2022/08/17 03:04:20;;;;;;;;;;;21.00;72.50;;;;;;5071641;28;19912;-92
2022/08/17 03:06:47;;;;;;;;;;;21.00;72.50;;;;;;5075915;28;19904;-88
2022/08/17 03:09:15;;;;;;;;;;;21.10;72.40;;;;;;5060651;28;19958;-90
2022/08/17 03:11:41;;;;;;;;;;;21.20;72.30;;;;;;5078187;28;20257;-90
2022/08/17 03:14:07;;;;;;;;;;;21.20;72.10;;;;;;5076092;28;19908;-90
2022/08/17 03:16:32;;;;;;;;;;;21.20;72.00;;;;;;5079015;28;19904;-89
2022/08/17 03:18:58;;;;;;;;;;;21.20;71.70;;;;;;5080447;28;19905;-90
2022/08/17 03:21:24;;;;;;;;;;;21.30;71.80;;;;;;5083389;28;20315;-90
2022/08/17 03:23:49;;;;;;;;;;;21.30;71.60;;;;;;5091015;28;19914;-91
2022/08/17 03:26:15;;;;;;;;;;;21.30;71.30;;;;;;5094478;28;19904;-88
2022/08/17 03:28:41;;;;;;;;;;;21.40;71.10;;;;;;5097229;28;19963;-89
2022/08/17 03:31:07;;;;;;;;;;;21.40;71.10;;;;;;5082755;28;19889;-88
2022/08/17 03:33:32;;;;;;;;;;;21.40;71.10;;;;;;5094236;28;20474;-88
2022/08/17 03:35:58;;;;;;;;;;;21.50;70.80;;;;;;5082631;28;19946;-89
2022/08/17 03:38:24;;;;;;;;;;;21.50;70.60;;;;;;5069893;28;19912;-88
2022/08/17 03:40:51;;;;;;;;;;;21.60;70.50;;;;;;5086385;28;19963;-88
2022/08/17 03:43:17;;;;;;;;;;;21.70;70.30;;;;;;5073437;28;19948;-90
2022/08/17 03:57:09;;;;;;;;;;;21.90;69.30;;;;;;5055645;28;19982;-87
2022/08/17 03:59:35;;;;;;;;;;;22.00;69.00;;;;;;5064229;28;19915;-88
2022/08/17 04:02:08;;;;;;;;;;;22.00;68.70;;;;;;5076891;28;19967;-88
2022/08/17 04:04:35;;;;;;;;;;;22.10;68.90;;;;;;5074958;28;19963;-89
2022/08/17 04:07:00;;;;;;;;;;;22.10;68.60;;;;;;5075788;28;19909;-88
2022/08/17 04:09:26;;;;;;;;;;;22.20;68.60;;;;;;5065035;28;20278;-88
2022/08/17 04:11:52;;;;;;;;;;;22.30;68.40;;;;;;5102328;28;19962;-85
2022/08/17 04:14:18;;;;;;;;;;;22.30;67.80;;;;;;5062379;28;19991;-86
2022/08/17 04:16:44;;;;;;;;;;;22.40;67.40;;;;;;5069783;28;19943;-85
2022/08/17 04:19:10;;;;;;;;;;;22.30;67.50;;;;;;5066056;28;19905;-86
2022/08/17 04:21:35;;;;;;;;;;;22.50;67.70;;;;;;5067478;28;20004;-87
2022/08/17 04:24:02;;;;;;;;;;;22.60;67.30;;;;;;5076579;28;19908;-88
2022/08/17 04:26:28;;;;;;;;;;;22.70;67.20;;;;;;5065445;28;19904;-88
2022/08/17 04:28:53;;;;;;;;;;;22.80;66.70;;;;;;5067189;28;19920;-87
2022/08/17 04:31:19;;;;;;;;;;;22.90;66.50;;;;;;5061201;28;20007;-88
2022/08/17 04:33:45;;;;;;;;;;;23.00;66.20;;;;;;5068025;28;19996;-87
2022/08/17 04:36:12;;;;;;;;;;;23.10;65.70;;;;;;5059952;28;20350;-89
2022/08/17 04:38:39;;;;;;;;;;;23.20;65.10;;;;;;5061559;28;19905;-88
2022/08/17 04:43:53;;;;;;;;;;;23.40;65.00;;;;;;5060304;28;19935;-89
2022/08/17 04:46:20;;;;;;;;;;;23.60;64.90;;;;;;5063325;28;19911;-88
2022/08/17 04:48:47;;;;;;;;;;;24.10;64.40;;;;;;5065491;28;19911;-88
2022/08/17 04:51:33;;;;;;;;;;;24.60;63.40;;;;;;5069362;28;20274;-89
2022/08/17 04:54:03;;;;;;;;;;;25.20;60.80;;;;;;5065413;28;20311;-88
2022/08/17 04:56:29;;;;;;;;;;;;;;;;;;5077041;28;19913;-87
2022/08/17 04:58:57;;;;;;;;;;;26.00;58.70;;;;;;5080834;28;20009;-89
2022/08/17 05:01:24;;;;;;;;;;;26.40;57.60;;;;;;5075971;28;19966;-90
2022/08/17 05:03:53;;;;;;;;;;;26.70;56.50;;;;;;5062368;28;20293;-89
2022/08/17 05:06:19;;;;;;;;;;;26.90;56.30;;;;;;5065377;28;19908;-86
2022/08/17 05:08:44;;;;;;;;;;;27.30;55.20;;;;;;5066728;28;19911;-85
2022/08/17 05:11:10;;;;;;;;;;;27.50;54.60;;;;;;5077752;28;19938;-91
2022/08/17 05:13:36;;;;;;;;;;;27.80;53.10;;;;;;5077781;28;19946;-88
2022/08/17 05:16:03;;;;;;;;;;;27.80;53.00;;;;;;5069982;28;19909;-87
2022/08/17 05:18:29;;;;;;;;;;;28.30;52.10;;;;;;5075446;28;19908;-88
2022/08/17 05:20:55;;;;;;;;;;;28.40;52.60;;;;;;5072894;28;19909;-84
2022/08/17 05:23:22;;;;;;;;;;;28.60;51.90;;;;;;5072464;28;19974;-88
2022/08/17 05:25:49;;;;;;;;;;;29.10;51.60;;;;;;5066669;28;19913;-85
2022/08/17 05:28:16;;;;;;;;;;;29.50;51.30;;;;;;5070990;28;19916;-85
2022/08/17 05:30:42;;;;;;;;;;;30.30;50.80;;;;;;5077031;28;19948;-88
2022/08/17 05:33:12;;;;;;;;;;;30.70;48.10;;;;;;5074965;28;19914;-85
2022/08/17 05:35:41;;;;;;;;;;;30.60;48.00;;;;;;5075992;28;20324;-88
2022/08/17 05:38:07;;;;;;;;;;;30.80;48.10;;;;;;5075905;28;19972;-88
2022/08/17 05:40:33;;;;;;;;;;;31.20;48.30;;;;;;5078371;28;19951;-91
2022/08/17 05:43:17;;;;;;;;;;;31.90;47.80;;;;;;5080142;28;19905;-84
2022/08/17 05:45:49;;;;;;;;;;;32.50;46.20;;;;;;5073352;28;19920;-83
2022/08/17 05:48:15;;;;;;;;;;;32.30;44.50;;;;;;5087826;28;19929;-85
2022/08/17 05:50:40;;;;;;;;;;;32.50;45.10;;;;;;5063369;28;20314;-86
2022/08/17 05:53:16;;;;;;;;;;;33.00;45.60;;;;;;5090460;28;19913;-90
2022/08/17 05:55:49;;;;;;;;;;;33.40;43.40;;;;;;5053796;28;19962;-87
2022/08/17 05:58:14;;;;;;;;;;;33.70;43.80;;;;;;5070431;28;20253;-88
2022/08/17 06:00:49;;;;;;;;;;;34.60;43.90;;;;;;5068685;28;20003;-90
2022/08/17 06:03:24;;;;;;;;;;;36.20;42.10;;;;;;5054190;28;19926;-87
2022/08/17 06:06:04;;;;;;;;;;;36.70;41.20;;;;;;5060857;28;19908;-87
2022/08/17 06:08:33;;;;;;;;;;;37.20;40.70;;;;;;5071442;28;19905;-87
2022/08/17 06:11:17;;;;;;;;;;;37.00;38.50;;;;;;5054845;28;20011;-87
2022/08/17 06:13:55;;;;;;;;;;;36.70;39.60;;;;;;5053140;28;20020;-89
2022/08/17 06:16:26;;;;;;;;;;;36.90;39.30;;;;;;5062112;28;19904;-88
2022/08/17 06:18:55;;;;;;;;;;;36.70;39.60;;;;;;5060515;28;19908;-88
2022/08/17 06:21:21;;;;;;;;;;;;;;;;;;5058567;28;19908;-87
2022/08/17 06:23:51;;;;;;;;;;;37.00;39.60;;;;;;5074631;28;20031;-88
2022/08/17 06:26:19;;;;;;;;;;;37.70;39.00;;;;;;5076421;28;19915;-87
2022/08/17 06:29:05;;;;;;;;;;;38.10;38.50;;;;;;5079111;28;19938;-88
2022/08/17 06:31:32;;;;;;;;;;;38.40;37.90;;;;;;5105903;28;20061;-89
2022/08/17 06:34:01;;;;;;;;;;;38.40;37.00;;;;;;5073940;28;19924;-87
2022/08/17 06:36:39;;;;;;;;;;;38.40;36.80;;;;;;5105813;28;19908;-90
2022/08/17 06:39:20;;;;;;;;;;;38.70;36.80;;;;;;5073744;28;19912;-89
2022/08/17 06:41:49;;;;;;;;;;;38.40;35.90;;;;;;5074342;28;19908;-86
2022/08/17 06:44:17;;;;;;;;;;;37.90;36.70;;;;;;5063137;28;20281;-88
2022/08/17 06:46:47;;;;;;;;;;;37.50;37.00;;;;;;5065876;28;20433;-88
2022/08/17 06:49:25;;;;;;;;;;;37.30;37.00;;;;;;5066357;28;20001;-89
2022/08/17 06:51:56;;;;;;;;;;;37.10;37.10;;;;;;5073163;28;19912;-88
2022/08/17 06:54:40;;;;;;;;;;;37.20;37.60;;;;;;5073680;28;19909;-86
2022/08/17 06:57:09;;;;;;;;;;;37.90;37.20;;;;;;5081511;28;20300;-88
2022/08/17 06:59:43;;;;;;;;;;;38.50;36.20;;;;;;5105987;28;20034;-88
2022/08/17 07:02:14;;;;;;;;;;;38.50;35.60;;;;;;5074058;28;19916;-88
2022/08/17 07:04:40;;;;;;;;;;;38.20;35.60;;;;;;5073250;28;20011;-87
2022/08/17 07:09:55;;;;;;;;;;;38.90;35.30;;;;;;5077698;28;19915;-89
2022/08/17 07:12:24;;;;;;;;;;;38.90;35.50;;;;;;5076901;28;19935;-87
2022/08/17 07:14:58;;;;;;;;;;;39.50;35.90;;;;;;5076052;28;20003;-87
2022/08/17 07:17:25;;;;;;;;;;;;;;;;;;5077083;28;19932;-88
2022/08/17 07:19:51;;;;;;;;;;;;;;;;;;5109954;28;20376;-86
2022/08/17 07:22:17;;;;;;;;;;;;;;;;;;5080951;28;19915;-88
2022/08/17 07:24:43;;;;;;;;;;;41.90;33.40;;;;;;5078353;28;20298;-87
2022/08/17 07:27:20;;;;;;;;;;;42.90;33.70;;;;;;5111737;28;19948;-87
2022/08/17 07:29:45;;;;;;;;;;;;;;;;;;5084409;28;19950;-87
2022/08/17 07:32:17;;;;;;;;;;;43.50;33.20;;;;;;5089679;28;19999;-85
2022/08/17 07:35:19;;;;;;;;;;;43.40;31.50;;;;;;5085165;28;19914;-89
2022/08/17 07:38:05;;;;;;;;;;;42.90;31.00;;;;;;5035753;28;19912;-86
2022/08/17 07:40:32;;;;;;;;;;;;;;;;;;5005418;28;19936;-87
2022/08/17 07:43:00;;;;;;;;;;;41.60;31.80;;;;;;5019377;28;20377;-88
2022/08/17 07:48:18;;;;;;;;;;;40.70;32.80;;;;;;5035565;28;19911;-89
2022/08/17 07:50:44;;;;;;;;;;;41.20;32.40;;;;;;5024094;28;19911;-87
2022/08/17 07:53:18;;;;;;;;;;;41.20;31.90;;;;;;5052062;28;19960;-87
2022/08/17 07:55:44;;;;;;;;;;;40.50;32.30;;;;;;5025700;28;19915;-89
2022/08/17 07:58:14;;;;;;;;;;;40.70;33.20;;;;;;5039238;28;19905;-86
2022/08/17 08:00:40;;;;;;;;;;;41.20;32.80;;;;;;5026832;28;19916;-87
2022/08/17 08:03:20;;;;;;;;;;;42.30;32.70;;;;;;5020700;28;19905;-87
2022/08/17 08:05:50;;;;;;;;;;;42.40;30.90;;;;;;5038137;28;20011;-88
2022/08/17 08:08:27;;;;;;;;;;;42.00;31.70;;;;;;5032219;28;19905;-87
2022/08/17 08:11:05;;;;;;;;;;;42.80;31.80;;;;;;5019233;28;19905;-87
2022/08/17 08:13:32;;;;;;;;;;;44.00;30.40;;;;;;5069256;28;19919;-87
2022/08/17 08:16:21;;;;;;;;;;;44.20;30.50;;;;;;5076247;28;20365;-88
2022/08/17 08:18:49;;;;;;;;;;;44.70;30.60;;;;;;5053199;28;20058;-87
2022/08/17 08:21:16;;;;;;;;;;;;;;;;;;5062762;28;19923;-89
2022/08/17 08:23:56;;;;;;;;;;;43.70;29.10;;;;;;5078699;28;19912;-86
2022/08/17 08:26:27;;;;;;;;;;;42.30;30.00;;;;;;5079104;28;19920;-87
2022/08/17 08:29:12;;;;;;;;;;;41.60;31.10;;;;;;5077001;28;19921;-86
2022/08/17 08:31:47;;;;;;;;;;;42.50;31.00;;;;;;5082554;28;20376;-87
2022/08/17 08:34:33;;;;;;;;;;;43.50;31.30;;;;;;5079753;28;19908;-88
2022/08/17 08:36:59;;;;;;;;;;;;;;;;;;5040011;28;19905;-88
2022/08/17 08:39:25;;;;;;;;;;;;;;;;;;5040195;28;19912;-86
2022/08/17 08:42:06;;;;;;;;;;;46.30;28.90;;;;;;5037780;28;20417;-86
2022/08/17 08:44:35;;;;;;;;;;;46.40;29.30;;;;;;5036782;28;19913;-87
2022/08/17 08:47:09;;;;;;;;;;;46.80;29.10;;;;;;5034955;28;19905;-87
2022/08/17 08:49:44;;;;;;;;;;;47.40;29.10;;;;;;5033964;28;19905;-87
2022/08/17 08:52:20;;;;;;;;;;;48.00;28.90;;;;;;5017265;28;19905;-89
2022/08/17 08:54:50;;;;;;;;;;;48.00;28.10;;;;;;5032039;28;19905;-90
2022/08/17 08:57:18;;;;;;;;;;;46.90;27.40;;;;;;5032421;28;20004;-88
2022/08/17 08:59:50;;;;;;;;;;;45.60;27.90;;;;;;5032524;28;19905;-88
2022/08/17 09:02:34;;;;;;;;;;;44.30;28.40;;;;;;5032664;28;20039;-88
2022/08/17 09:05:01;;;;;;;;;;;;;;;;;;5032394;28;19913;-87
2022/08/17 09:07:27;;;;;;;;;;;;;;;;;;5028494;28;19909;-85
2022/08/17 09:09:55;;;;;;;;;;;;;;;;;;5023773;28;19932;-86
2022/08/17 09:12:21;;;;;;;;;;;;;;;;;;5032360;28;20461;-87
2022/08/17 09:14:47;;;;;;;;;;;;;;;;;;5057703;28;20003;-87
2022/08/17 09:17:13;;;;;;;;;;;;;;;;;;5062092;28;19915;-89
2022/08/17 09:19:39;;;;;;;;;;;;;;;;;;5074440;28;19904;-88
2022/08/17 09:22:09;;;;;;;;;;;;;;;;;;5074903;28;20369;-88
2022/08/17 09:24:35;;;;;;;;;;;;;;;;;;5074990;28;19965;-88
2022/08/17 09:27:01;;;;;;;;;;;;;;;;;;5075338;28;19908;-86
2022/08/17 09:29:27;;;;;;;;;;;;;;;;;;5074269;28;19958;-87
2022/08/17 09:31:54;;;;;;;;;;;;;;;;;;5072906;28;19908;-86
2022/08/17 09:34:20;;;;;;;;;;;;;;;;;;5075016;28;19980;-88
2022/08/17 09:36:45;;;;;;;;;;;;;;;;;;5075050;28;19973;-88
2022/08/17 09:39:11;;;;;;;;;;;;;;;;;;5073476;28;19904;-87
2022/08/17 09:41:37;;;;;;;;;;;;;;;;;;5073379;28;19908;-90
2022/08/17 09:44:03;;;;;;;;;;;;;;;;;;5106160;28;19923;-87
2022/08/17 09:46:29;;;;;;;;;;;;;;;;;;5073611;28;19904;-87
2022/08/17 09:48:56;;;;;;;;;;;;;;;;;;5106770;28;19999;-88
2022/08/17 09:51:22;;;;;;;;;;;;;;;;;;5073999;28;19904;-86
2022/08/17 09:53:48;;;;;;;;;;;;;;;;;;5079410;28;19957;-86
2022/08/17 09:56:13;;;;;;;;;;;;;;;;;;5109600;28;19957;-89
2022/08/17 09:58:39;;;;;;;;;;;;;;;;;;5073712;28;20421;-89
2022/08/17 10:01:05;;;;;;;;;;;;;;;;;;5106458;28;20289;-88
2022/08/17 10:03:33;;;;;;;;;;;;;;;;;;5073712;28;19908;-89
2022/08/17 10:05:59;;;;;;;;;;;;;;;;;;5073920;28;19905;-86
2022/08/17 10:08:26;;;;;;;;;;;;;;;;;;5073598;28;19911;-89
2022/08/17 10:10:52;;;;;;;;;;;;;;;;;;5073844;28;19909;-85
2022/08/17 10:13:18;;;;;;;;;;;;;;;;;;5074822;28;20399;-89
2022/08/17 10:15:45;;;;;;;;;;;;;;;;;;5075466;28;19904;-86
2022/08/17 10:18:26;;;;;;;;;;;43.50;29.00;;;;;;5074870;28;19932;-87
2022/08/17 10:26:38;;;;;;;;;;;42.20;29.40;;;;;;5074689;28;19912;-87
2022/08/17 10:29:04;;;;;;;;;;;;;;;;;;5074503;28;20288;-88
2022/08/17 10:31:37;;;;;;;;;;;41.30;29.60;;;;;;5073455;28;19944;-87
2022/08/17 10:34:12;;;;;;;;;;;39.40;30.20;;;;;;5074577;28;19909;-86
2022/08/17 10:36:46;;;;;;;;;;;38.20;31.30;;;;;;5072545;28;19947;-85
2022/08/17 10:39:18;;;;;;;;;;;36.50;32.50;;;;;;5073104;28;19904;-88
2022/08/17 10:41:48;;;;;;;;;;;35.50;34.00;;;;;;5075196;28;19962;-86
2022/08/17 10:44:17;;;;;;;;;;;34.50;34.60;;;;;;5077828;28;19908;-89
2022/08/17 10:46:52;;;;;;;;;;;33.70;35.70;;;;;;5081585;28;19908;-87
2022/08/17 10:49:19;;;;;;;;;;;33.20;36.60;;;;;;5087001;28;19909;-88
2022/08/17 10:51:52;;;;;;;;;;;32.90;37.10;;;;;;5076785;28;20002;-89
2022/08/17 10:54:23;;;;;;;;;;;32.60;37.30;;;;;;5076809;28;19905;-88
2022/08/17 10:56:50;;;;;;;;;;;32.40;37.80;;;;;;5109741;28;19981;-87
2022/08/17 10:59:49;;;;;;;;;;;32.10;38.30;;;;;;5077191;28;19911;-86
2022/08/17 11:02:15;;;;;;;;;;;31.90;38.50;;;;;;5049390;28;20361;-88
2022/08/17 11:04:46;;;;;;;;;;;31.70;38.70;;;;;;5077168;28;19916;-87
2022/08/17 11:07:21;;;;;;;;;;;31.60;38.90;;;;;;5076943;28;20331;-91
2022/08/17 11:10:05;;;;;;;;;;;31.40;38.90;;;;;;5066287;28;19915;-86
2022/08/17 11:12:44;;;;;;;;;;;31.10;38.90;;;;;;5075370;28;19905;-88
2022/08/17 11:15:19;;;;;;;;;;;31.00;39.10;;;;;;5077209;28;19904;-90
2022/08/17 11:17:44;;;;;;;;;;;30.90;39.20;;;;;;5076545;28;20249;-87
2022/08/17 11:20:20;;;;;;;;;;;30.90;40.40;;;;;;5076679;28;19905;-86
2022/08/17 11:22:49;;;;;;;;;;;30.70;40.40;;;;;;5076492;28;19904;-86
2022/08/17 11:25:34;;;;;;;;;;;30.70;40.50;;;;;;5079945;28;20281;-87
2022/08/17 11:28:12;;;;;;;;;;;30.70;41.40;;;;;;5079211;28;19923;-86
2022/08/17 11:30:45;;;;;;;;;;;30.70;40.90;;;;;;5077456;28;19943;-87
2022/08/17 11:33:38;;;;;;;;;;;30.70;40.40;;;;;;5075377;28;19904;-87
2022/08/17 11:36:22;;;;;;;;;;;30.70;40.40;;;;;;5072312;28;19916;-87
2022/08/17 11:38:47;;;;;;;;;;;30.80;40.30;;;;;;5062773;28;19904;-88
2022/08/17 11:41:32;;;;;;;;;;;30.80;40.40;;;;;;5070980;28;20336;-86
2022/08/17 11:44:16;;;;;;;;;;;30.90;40.30;;;;;;5063899;28;19912;-89
2022/08/17 11:52:48;;;;;;;;;;;31.00;40.30;;;;;;5070298;28;19971;-87
2022/08/17 11:55:43;;;;;;;;;;;31.00;40.20;;;;;;5076328;28;19936;-88
2022/08/17 11:58:27;;;;;;;;;;;31.00;41.00;;;;;;5038430;28;20283;-88
2022/08/17 12:00:55;;;;;;;;;;;30.90;41.00;;;;;;5065465;28;19908;-86
2022/08/17 12:03:23;;;;;;;;;;;30.80;41.20;;;;;;5110396;28;20331;-87
2022/08/17 12:05:52;;;;;;;;;;;30.80;41.20;;;;;;5076497;28;19959;-87
2022/08/17 12:08:20;;;;;;;;;;;30.70;41.30;;;;;;5076464;28;19973;-88
2022/08/17 12:10:58;;;;;;;;;;;30.60;41.30;;;;;;5076544;28;20081;-88
2022/08/17 12:13:24;;;;;;;;;;;30.50;41.70;;;;;;5082209;28;19926;-88
2022/08/17 12:15:51;;;;;;;;;;;30.40;41.60;;;;;;5084790;28;19905;-86
2022/08/17 12:18:29;;;;;;;;;;;30.30;41.70;;;;;;5085183;28;19912;-87
2022/08/17 12:21:05;;;;;;;;;;;30.30;41.50;;;;;;5076154;28;20258;-87
2022/08/17 12:23:39;;;;;;;;;;;30.30;41.50;;;;;;5075349;28;19939;-88
2022/08/17 12:26:10;;;;;;;;;;;30.20;41.60;;;;;;5061558;28;19958;-87
2022/08/17 12:28:43;;;;;;;;;;;30.20;41.80;;;;;;5075151;28;19931;-87
2022/08/17 12:31:32;;;;;;;;;;;30.20;41.60;;;;;;5076025;28;19952;-89
2022/08/17 12:33:59;;;;;;;;;;;30.20;41.50;;;;;;5070288;28;19904;-88
2022/08/17 12:36:27;;;;;;;;;;;30.20;41.40;;;;;;5078388;28;19974;-87
2022/08/17 12:38:52;;;;;;;;;;;30.30;41.40;;;;;;5073098;28;19919;-86
2022/08/17 12:41:29;;;;;;;;;;;30.20;41.10;;;;;;5076695;28;19905;-85
2022/08/17 12:44:00;;;;;;;;;;;30.20;40.90;;;;;;5077598;28;19962;-89
2022/08/17 12:46:27;;;;;;;;;;;30.20;40.90;;;;;;5077238;28;19930;-90
2022/08/17 12:48:53;;;;;;;;;;;30.10;40.80;;;;;;5109054;28;20405;-88
2022/08/17 12:51:19;;;;;;;;;;;30.00;40.90;;;;;;5076128;28;19905;-87
2022/08/17 12:53:51;;;;;;;;;;;30.00;40.90;;;;;;5110419;28;19911;-90
2022/08/17 12:56:17;;;;;;;;;;;29.90;40.90;;;;;;5075842;28;20032;-90
2022/08/17 12:58:47;;;;;;;;;;;29.90;40.80;;;;;;5075662;28;19990;-89
2022/08/17 13:01:13;;;;;;;;;;;;;;;;;;5075089;28;19908;-89
2022/08/17 13:03:42;;;;;;;;;;;29.70;40.60;;;;;;5106682;28;19911;-89
2022/08/17 13:06:09;;;;;;;;;;;29.60;40.60;;;;;;5074141;28;19912;-89
2022/08/17 13:08:37;;;;;;;;;;;29.60;40.70;;;;;;5074155;28;19999;-87
2022/08/17 13:11:08;;;;;;;;;;;29.60;40.70;;;;;;5074479;28;19908;-88
2022/08/17 13:13:35;;;;;;;;;;;29.50;40.60;;;;;;5074742;28;20361;-88
2022/08/17 13:16:02;;;;;;;;;;;29.60;40.60;;;;;;5073579;28;19996;-87
2022/08/17 13:18:28;;;;;;;;;;;29.50;40.50;;;;;;5107019;28;19908;-90
2022/08/17 13:20:56;;;;;;;;;;;29.60;40.60;;;;;;5077241;28;20285;-88
2022/08/17 13:23:28;;;;;;;;;;;29.60;40.60;;;;;;5082065;28;19915;-87
2022/08/17 13:26:01;;;;;;;;;;;29.60;40.40;;;;;;5061258;28;19917;-87
2022/08/17 13:28:27;;;;;;;;;;;29.60;40.40;;;;;;5074736;28;19920;-88
2022/08/17 13:31:13;;;;;;;;;;;29.60;40.50;;;;;;5076432;28;19916;-90
2022/08/17 13:33:39;;;;;;;;;;;29.70;40.90;;;;;;5062012;28;19999;-87
2022/08/17 13:36:09;;;;;;;;;;;29.60;40.90;;;;;;5074535;28;19989;-88
2022/08/17 13:38:36;;;;;;;;;;;29.70;41.10;;;;;;5075456;28;19951;-89
2022/08/17 13:41:02;;;;;;;;;;;29.70;41.10;;;;;;5090878;28;19904;-89
2022/08/17 13:43:47;;;;;;;;;;;29.70;41.10;;;;;;5089668;28;19971;-87
2022/08/17 13:46:27;;;;;;;;;;;29.70;41.20;;;;;;5077954;28;19920;-87
2022/08/17 13:49:00;;;;;;;;;;;29.70;41.10;;;;;;5060786;28;20000;-88
2022/08/17 13:51:28;;;;;;;;;;;29.80;41.10;;;;;;5075671;28;19963;-87
2022/08/17 13:53:55;;;;;;;;;;;29.80;41.00;;;;;;5076679;28;19970;-88
2022/08/17 13:56:27;;;;;;;;;;;29.70;40.80;;;;;;5073511;28;20230;-88
2022/08/17 13:58:56;;;;;;;;;;;29.70;40.90;;;;;;5070180;28;19916;-88
2022/08/17 14:01:35;;;;;;;;;;;29.70;41.20;;;;;;5068246;28;19980;-86
2022/08/17 14:04:03;;;;;;;;;;;29.50;41.30;;;;;;5063096;28;19908;-88
2022/08/17 14:06:40;;;;;;;;;;;29.40;41.40;;;;;;5079309;28;20053;-86
2022/08/17 14:09:06;;;;;;;;;;;29.40;42.20;;;;;;5058173;28;19940;-88
2022/08/17 14:11:32;;;;;;;;;;;29.30;41.70;;;;;;5074468;28;20427;-89
2022/08/17 14:13:57;;;;;;;;;;;29.70;41.70;;;;;;5107302;28;19912;-87
2022/08/17 14:16:23;;;;;;;;;;;30.40;41.20;;;;;;5075090;28;19905;-87
2022/08/17 14:18:49;;;;;;;;;;;31.20;40.40;;;;;;5076980;28;19911;-89
2022/08/17 14:21:15;;;;;;;;;;;31.60;39.90;;;;;;5078520;28;20094;-88
2022/08/17 14:23:42;;;;;;;;;;;31.90;39.00;;;;;;5078465;28;19926;-88
2022/08/17 14:26:09;;;;;;;;;;;32.00;38.50;;;;;;5077743;28;19922;-89
2022/08/17 14:28:35;;;;;;;;;;;32.00;38.70;;;;;;5065878;28;19916;-86
2022/08/17 14:31:00;;;;;;;;;;;31.80;38.60;;;;;;5078708;28;19911;-89
2022/08/17 14:33:26;;;;;;;;;;;31.20;38.80;;;;;;5079018;28;19943;-89
2022/08/17 14:35:53;;;;;;;;;;;30.70;39.30;;;;;;5079035;28;19912;-89
2022/08/17 14:38:19;;;;;;;;;;;30.30;39.90;;;;;;5095367;28;19909;-89
2022/08/17 14:40:46;;;;;;;;;;;30.10;40.20;;;;;;5096938;28;19911;-88
2022/08/17 14:43:11;;;;;;;;;;;29.80;40.30;;;;;;5091042;28;20406;-88
2022/08/17 14:45:42;;;;;;;;;;;29.60;40.70;;;;;;5089763;28;19912;-90
2022/08/17 14:48:09;;;;;;;;;;;;;;;;;;5089260;28;19905;-88
2022/08/17 14:50:36;;;;;;;;;;;29.40;40.70;;;;;;5078734;28;19904;-90
2022/08/17 14:53:03;;;;;;;;;;;29.20;41.10;;;;;;5083803;28;19944;-89
2022/08/17 14:55:29;;;;;;;;;;;29.10;41.10;;;;;;5081614;28;19981;-88
2022/08/17 14:57:55;;;;;;;;;;;29.10;41.00;;;;;;5111253;28;19912;-87
2022/08/17 15:00:21;;;;;;;;;;;29.10;41.00;;;;;;5078373;28;19912;-86
2022/08/17 15:02:52;;;;;;;;;;;29.00;41.00;;;;;;5078445;28;20330;-87
2022/08/17 15:05:19;;;;;;;;;;;28.90;41.00;;;;;;5078304;28;19913;-89
2022/08/17 15:07:44;;;;;;;;;;;28.90;41.20;;;;;;5114295;28;19904;-88
2022/08/17 15:10:12;;;;;;;;;;;28.90;41.20;;;;;;5122029;28;19917;-88
2022/08/17 15:12:38;;;;;;;;;;;28.90;41.30;;;;;;5085447;28;19931;-88
2022/08/17 15:15:05;;;;;;;;;;;28.90;41.30;;;;;;5078223;28;19912;-89
2022/08/17 15:17:31;;;;;;;;;;;28.80;41.20;;;;;;5076684;28;19905;-89